Data for 10/31/2009

Time Sea-Level Adjusted Pressure Absolute Pressure Temperature Relative Humidity Dew Point   
(mb) (inHg) (mb) (inHg) (C) (F) (%) (C) (F)
00:05 1018 30.06 847 25.01 7.5 45.5 62 0.6 33.1
00:10 1018 30.06 847 25.01 7.2 44.9 63 0.6 33
00:15 1018 30.06 847 25.01 6.8 44.3 62 0.2 32.3
00:20 1018 30.06 847 25.01 7.2 44.9 61 0.1 32.2
00:25 1018 30.06 847 25.01 7.5 45.5 59 -0 32
00:30 1018 30.06 847 25.01 7.6 45.7 58 -0.2 31.6
00:35 1018 30.06 847 25.01 7.7 45.9 57 -0.2 31.6
00:40 1018 30.06 847 25.01 7.6 45.7 58 -0 32
00:45 1018 30.06 847 25.01 7.4 45.3 59 0 32
00:50 1018 30.06 847 25.01 7.2 44.9 59 -0.2 31.7
00:55 1018 30.06 847 25.01 7.3 45.1 59 -0.3 31.5
01:00 1018 30.06 847 25.01 7.5 45.5 59 0.1 32.1
01:05 1018 30.06 847 25.01 7.3 45.2 59 -0.1 31.9
01:10 1018 30.06 847 25.01 7.3 45.1 60 0.1 32.2
01:15 1018 30.06 847 25.01 7.2 45 59 -0.2 31.6
01:20 1018 30.06 847 25.01 7.3 45.1 58 -0.4 31.3
01:25 1018 30.06 847 25.01 7.3 45.2 58 -0.4 31.3
01:30 1018 30.06 847 25.01 7.2 45 59 -0.3 31.5
01:35 1018 30.06 847 25.01 7 44.5 59 -0.4 31.2
01:40 1018 30.06 847 25.01 6.9 44.5 60 -0.3 31.4
01:45 1018 30.06 847 25.01 6.9 44.5 60 -0.3 31.4
01:50 1018 30.06 847 25.01 6.7 44.1 61 -0.3 31.5
01:55 1018 30.06 847 25.01 6.6 44 60 -0.5 31.2
02:00 1018 30.06 847 25.01 6.7 44.1 60 -0.5 31.2
02:05 1018 30.06 847 25.01 6.7 44 61 -0.4 31.3
02:10 1017 30.03 847 25.01 7 44.5 61 0 32.1
02:15 1017 30.03 847 25.01 6.8 44.3 63 0.2 32.4
02:20 1017 30.03 846 24.98 6.6 43.9 63 0.1 32.2
02:25 1017 30.03 846 24.98 6.7 44 62 -0.1 31.8
02:30 1017 30.03 846 24.98 6.7 44.1 63 0.1 32.3
02:35 1017 30.03 846 24.98 6.4 43.5 63 -0.1 31.9
02:40 1017 30.03 846 24.98 6.5 43.6 62 -0.2 31.6
02:45 1017 30.03 846 24.98 6.7 44.1 60 -0.4 31.4
02:50 1017 30.03 846 24.98 6.9 44.5 59 -0.5 31.1
02:55 1017 30.03 846 24.98 7.2 44.9 60 -0.1 31.7
03:00 1017 30.03 846 24.98 7.1 44.8 59 -0.3 31.4
03:05 1017 30.03 846 24.98 7.1 44.8 58 -0.7 30.8
03:10 1016 30 846 24.98 7.3 45.2 56 -0.9 30.4
03:15 1016 30 846 24.98 7.4 45.3 58 -0.4 31.3
03:20 1016 30 846 24.98 7.1 44.8 58 -0.5 31.1
03:25 1016 30 846 24.98 6.8 44.3 60 -0.4 31.3
03:30 1017 30.03 846 24.98 6.4 43.6 62 -0.3 31.5
03:35 1017 30.03 846 24.98 6.1 43.1 62 -0.5 31
03:40 1017 30.03 846 24.98 5.9 42.7 64 -0.3 31.4
03:45 1017 30.03 846 24.98 5.5 41.9 66 -0.3 31.5
03:50 1017 30.03 846 24.98 5.2 41.4 65 -0.8 30.5
03:55 1017 30.03 846 24.98 5.3 41.6 66 -0.6 30.9
04:00 1017 30.03 846 24.98 5.4 41.7 64 -0.8 30.5
04:05 1017 30.03 846 24.98 5.6 42 64 -0.6 30.9
04:10 1017 30.03 846 24.98 5.5 41.9 64 -0.7 30.8
04:15 1017 30.03 846 24.98 5.6 42.2 62 -1 30.2
04:20 1017 30.03 846 24.98 6.1 42.9 60 -1 30.2
04:25 1017 30.03 846 24.98 6.4 43.4 59 -1 30.3
04:30 1017 30.03 846 24.98 6.6 43.9 58 -1 30.1
04:35 1016 30 846 24.98 6.8 44.3 58 -0.9 30.3
04:40 1016 30 846 24.98 6.6 43.9 60 -0.6 30.9
04:45 1016 30 845 24.95 6.2 43.1 61 -0.8 30.6
04:50 1016 30 845 24.95 5.9 42.5 63 -0.7 30.8
04:55 1016 30 846 24.98 5.7 42.2 62 -1 30.3
05:00 1016 30 846 24.98 5.7 42.3 65 -0.4 31.2
05:05 1016 30 845 24.95 5.2 41.4 66 -0.5 31
05:10 1016 30 846 24.98 5.1 41.2 66 -0.7 30.7
05:15 1016 30 846 24.98 5.2 41.4 66 -0.5 31.1
05:20 1016 30 845 24.95 5.2 41.3 66 -0.7 30.7
05:25 1016 30 845 24.95 5.3 41.6 65 -0.7 30.8
05:30 1016 30 845 24.95 5.5 41.9 63 -1 30.3
05:35 1016 30 845 24.95 5.9 42.7 59 -1.4 29.5
05:40 1016 30 845 24.95 6.4 43.5 60 -0.7 30.7
05:45 1016 30 845 24.95 6.1 43 62 -0.6 31
05:50 1016 30 845 24.95 5.9 42.6 63 -0.6 30.9
05:55 1016 30 845 24.95 5.5 42 65 -0.4 31.2
06:00 1016 30 845 24.95 5.3 41.5 65 -0.6 30.8
06:05 1016 30 845 24.95 5.3 41.5 66 -0.5 31.1
06:10 1016 30 845 24.95 5.2 41.4 64 -1.1 30
06:15 1016 30 845 24.95 5.8 42.4 63 -0.6 30.9
06:20 1016 30 845 24.95 5.7 42.2 64 -0.7 30.8
06:25 1016 30 845 24.95 5.9 42.5 62 -0.9 30.4
06:30 1016 30 845 24.95 6.1 42.9 61 -0.9 30.3
06:35 1016 30 845 24.95 6.6 43.9 59 -0.8 30.5
06:40 1016 30 845 24.95 6.6 43.9 59 -0.8 30.6
06:45 1016 30 845 24.95 6.5 43.7 60 -0.7 30.8
06:50 1016 30 845 24.95 6.4 43.5 59 -1.1 30.1
06:55 1016 30 845 24.95 6.6 43.8 59 -0.9 30.3
07:00 1016 30 845 24.95 6.6 43.9 58 -1.1 30
07:05 1016 30 845 24.95 7 44.6 55 -1.4 29.5
07:10 1016 30 845 24.95 7.7 45.9 53 -1.3 29.6
07:15 1016 30 845 24.95 7.9 46.2 53 -1 30.1
07:20 1016 30 845 24.95 8 46.4 55 -0.5 31.1
07:25 1016 30 845 24.95 7.3 45.1 57 -0.8 30.6
07:30 1016 30 845 24.95 7.2 45 55 -1.1 30.1
07:35 1016 30 845 24.95 7.3 45.2 55 -1.1 30.1
07:40 1016 30 845 24.95 7.4 45.2 56 -0.9 30.3
07:45 1016 30 845 24.95 7.6 45.7 55 -0.9 30.4
07:50 1016 30 845 24.95 8.1 46.5 52 -1.1 30
07:55 1016 30 845 24.95 8.5 47.2 51 -1.1 30
08:00 1016 30 845 24.95 8.6 47.5 50 -1.1 30
08:05 1016 30 845 24.95 8.3 46.9 52 -1 30.2
08:10 1016 30 845 24.95 8.2 46.8 51 -1.2 29.8
08:15 1016 30 845 24.95 8.7 47.6 53 -0.3 31.5
08:20 1016 30 845 24.95 8.2 46.8 53 -0.7 30.7
08:25 1016 30 845 24.95 7.9 46.3 53 -0.9 30.3
08:30 1016 30 845 24.95 8.1 46.5 53 -0.9 30.4
08:35 1016 30 845 24.95 8.1 46.6 53 -0.8 30.6
08:40 1016 30 845 24.95 8.2 46.7 53 -0.8 30.5
08:45 1016 30 845 24.95 8.5 47.3 52 -0.8 30.5
08:50 1016 30 846 24.98 8.7 47.7 51 -0.8 30.5
08:55 1016 30 846 24.98 8.6 47.4 53 -0.5 31.1
09:00 1016 30 845 24.95 8.1 46.6 54 -0.5 31.1
09:05 1016 30 846 24.98 7.9 46.2 55 -0.6 30.9
09:10 1016 30 846 24.98 8.2 46.7 54 -0.6 31
09:15 1016 30 846 24.98 8.5 47.4 54 -0.3 31.5
09:20 1016 30 846 24.98 8.3 47 55 -0.2 31.6
09:25 1016 30 846 24.98 8.2 46.8 57 0.3 32.6
09:30 1017 30.03 846 24.98 7.9 46.2 57 -0.1 31.8
09:35 1017 30.03 846 24.98 8 46.4 55 -0.6 31
09:40 1016 30 846 24.98 8.2 46.8 55 -0.2 31.6
09:45 1016 30 846 24.98 8.5 47.2 52 -0.7 30.7
09:50 1016 30 846 24.98 8.4 47.1 55 -0 32
09:55 1016 30 846 24.98 8.1 46.7 55 -0.4 31.4
10:00 1016 30 846 24.98 8.3 46.9 54 -0.5 31
10:05 1016 30 846 24.98 8.5 47.4 54 -0.2 31.6
10:10 1016 30 846 24.98 9 48.3 52 -0.3 31.4
10:15 1016 30 846 24.98 9.3 48.7 51 -0.2 31.6
10:20 1016 30 846 24.98 9.5 49.1 51 -0.1 31.8
10:25 1016 30 846 24.98 9.7 49.4 51 0.1 32.2
10:30 1016 30 845 24.95 9.7 49.5 49 -0.3 31.4
10:35 1016 30 846 24.98 10.3 50.5 49 0 32
10:40 1016 30 846 24.98 10.8 51.4 48 0.4 32.7
10:45 1016 30 846 24.98 11.1 52 48 0.5 32.8
10:50 1016 30 846 24.98 11.3 52.3 48 0.7 33.2
10:55 1016 30 846 24.98 11.3 52.3 49 0.9 33.6
11:00 1016 30 846 24.98 11.4 52.5 45 -0 31.9
11:05 1016 30 846 24.98 11.8 53.2 47 0.8 33.5
11:10 1016 30 846 24.98 11.7 53.1 46 0.6 33.1
11:15 1016 30 845 24.95 11.9 53.5 46 0.6 33.2
11:20 1016 30 845 24.95 12.1 53.9 45 0.7 33.3
11:25 1016 30 845 24.95 12.4 54.3 44 0.4 32.7
11:30 1016 30 845 24.95 12.4 54.3 44 0.5 32.9
11:35 1016 30 845 24.95 12.4 54.2 45 0.8 33.5
11:40 1016 30 845 24.95 12.3 54.2 44 0.4 32.8
11:45 1016 30 845 24.95 12.4 54.3 43 0.4 32.6
11:50 1016 30 845 24.95 12.3 54.2 44 0.5 32.8
11:55 1016 30 845 24.95 12.4 54.2 43 0.1 32.2
12:00 1016 30 845 24.95 12.5 54.5 44 0.6 33
12:05 1016 30 845 24.95 12.5 54.6 43 0.5 32.8
12:10 1016 30 845 24.95 12.7 54.9 43 0.6 33
12:15 1016 30 845 24.95 12.7 54.9 43 0.7 33.2
12:20 1016 30 845 24.95 12.7 54.9 44 0.9 33.7
12:25 1016 30 845 24.95 12.7 54.8 44 0.7 33.2
12:30 1016 30 845 24.95 12.7 54.9 44 0.9 33.7
12:35 1016 30 845 24.95 12.7 54.8 42 0.3 32.6
12:40 1016 30 845 24.95 12.6 54.7 42 0.2 32.4
12:45 1016 30 845 24.95 12.7 54.8 44 0.8 33.4
12:50 1016 30 845 24.95 12.6 54.8 44 0.8 33.5
12:55 1016 30 845 24.95 12.6 54.7 43 0.3 32.6
13:00 1016 30 845 24.95 12.5 54.6 43 0.4 32.7
13:05 1016 30 845 24.95 12.5 54.5 44 0.5 33
13:10 1016 30 845 24.95 12.5 54.5 44 0.5 32.9
13:15 1016 30 845 24.95 12.5 54.5 45 0.8 33.5
13:20 1016 30 845 24.95 12.4 54.4 45 0.8 33.4
13:25 1015 29.97 845 24.95 12.5 54.5 43 0.3 32.6
13:30 1015 29.97 845 24.95 12.6 54.7 43 0.5 32.9
13:35 1015 29.97 845 24.95 12.7 54.8 44 0.7 33.2
13:40 1015 29.97 844 24.92 12.9 55.2 42 0.4 32.8
13:45 1015 29.97 844 24.92 13 55.4 42 0.6 33
13:50 1015 29.97 844 24.92 13 55.5 42 0.6 33.1
13:55 1015 29.97 844 24.92 13 55.4 42 0.6 33.1
14:00 1015 29.97 844 24.92 13.1 55.5 42 0.5 32.9
14:05 1015 29.97 844 24.92 13.2 55.7 42 0.7 33.2
14:10 1015 29.97 844 24.92 13.4 56.2 41 0.6 33.1
14:15 1015 29.97 844 24.92 14.5 58.2 37 0.3 32.5
14:20 1015 29.97 844 24.92 15.4 59.6 35 -0.1 31.8
14:25 1015 29.97 844 24.92 14.9 58.8 36 0.1 32.2
14:30 1015 29.97 844 24.92 15 59 36 0 32.1
14:35 1015 29.97 844 24.92 15 58.9 36 -0 31.9
14:40 1015 29.97 844 24.92 14.7 58.5 36 -0.3 31.5
14:45 1015 29.97 844 24.92 14.5 58.1 35 -0.7 30.7
14:50 1015 29.97 844 24.92 14.4 58 34 -1.2 29.8
14:55 1015 29.97 844 24.92 14.4 57.9 35 -0.6 30.9
15:00 1015 29.97 844 24.92 14.4 58 35 -0.7 30.8
15:05 1015 29.97 844 24.92 14.4 58 34 -1.3 29.6
15:10 1015 29.97 844 24.92 14.4 58 34 -0.9 30.3
15:15 1015 29.97 844 24.92 14.5 58 33 -1.4 29.4
15:20 1015 29.97 844 24.92 14.4 58 34 -1.2 29.9
15:25 1015 29.97 844 24.92 14.4 57.8 34 -1.2 29.8
15:30 1015 29.97 844 24.92 14.4 57.8 34 -1.3 29.6
15:35 1015 29.97 844 24.92 14.4 57.9 35 -0.9 30.4
15:40 1015 29.97 844 24.92 14.2 57.6 36 -0.7 30.8
15:45 1015 29.97 844 24.92 14.3 57.7 34 -1.1 30
15:50 1015 29.97 844 24.92 14.4 57.9 35 -0.8 30.5
15:55 1015 29.97 844 24.92 14.4 57.9 35 -1 30.3
16:00 1015 29.97 844 24.92 14.3 57.7 35 -0.7 30.7
16:05 1015 29.97 844 24.92 14.1 57.4 37 -0.3 31.4
16:10 1015 29.97 844 24.92 14 57.2 37 -0.5 31.1
16:15 1015 29.97 844 24.92 14.1 57.3 36 -0.5 31
16:20 1015 29.97 844 24.92 14 57.2 36 -0.6 30.9
16:25 1015 29.97 844 24.92 13.9 57.1 36 -0.6 30.8
16:30 1015 29.97 844 24.92 14.2 57.5 35 -1.1 30
16:35 1015 29.97 844 24.92 14.3 57.7 34 -1.2 29.8
16:40 1015 29.97 844 24.92 14.2 57.5 35 -1.1 30
16:45 1015 29.97 844 24.92 14.3 57.7 35 -0.7 30.7
16:50 1015 29.97 844 24.92 14 57.2 36 -0.7 30.8
16:55 1015 29.97 844 24.92 13.8 56.9 37 -0.6 31
17:00 1015 29.97 844 24.92 13.8 56.9 37 -0.5 31.2
17:05 1015 29.97 844 24.92 14.1 57.3 37 -0.4 31.3
17:10 1015 29.97 844 24.92 14.3 57.8 37 -0.1 31.9
17:15 1015 29.97 844 24.92 14.2 57.6 37 -0.1 31.9
17:20 1015 29.97 845 24.95 14.2 57.6 37 -0.3 31.5
17:25 1015 29.97 845 24.95 14.1 57.4 38 0.2 32.3
17:30 1016 30 845 24.95 13.8 56.8 38 -0.2 31.6
17:35 1016 30 845 24.95 13.6 56.5 38 -0.3 31.4
17:40 1016 30 845 24.95 13.4 56.1 39 -0.1 31.8
17:45 1016 30 845 24.95 13.2 55.7 39 -0.3 31.4
17:50 1016 30 845 24.95 13.1 55.6 39 -0.6 31
17:55 1016 30 845 24.95 13 55.4 39 -0.6 31
18:00 1016 30 845 24.95 12.9 55.1 39 -0.6 30.9
18:05 1016 30 845 24.95 12.7 54.9 39 -0.7 30.7
18:10 1016 30 845 24.95 12.6 54.7 40 -0.8 30.6
18:15 1016 30 845 24.95 12.6 54.6 39 -1 30.2
18:20 1016 30 845 24.95 12.6 54.7 40 -0.7 30.7
18:25 1016 30 845 24.95 12.5 54.5 40 -0.8 30.5
18:30 1016 30 845 24.95 12.4 54.3 40 -0.7 30.7
18:35 1016 30 845 24.95 12.3 54.1 40 -0.9 30.3
18:40 1016 30 845 24.95 12.3 54.1 40 -0.9 30.3
18:45 1016 30 845 24.95 12.2 53.9 40 -0.9 30.4
18:50 1016 30 845 24.95 12 53.7 40 -1 30.2
18:55 1016 30 845 24.95 11.9 53.4 41 -1 30.2
19:00 1016 30 845 24.95 11.9 53.3 41 -1.1 30.1
19:05 1016 30 845 24.95 11.7 53.1 41 -1 30.2
19:10 1016 30 846 24.98 11.7 53 41 -1.2 29.8
19:15 1016 30 846 24.98 11.7 53 40 -1.6 29.2
19:20 1016 30 846 24.98 11.8 53.2 38 -2 28.4
19:25 1016 30 846 24.98 11.9 53.3 38 -2 28.5
19:30 1017 30.03 846 24.98 11.9 53.4 36 -2.6 27.4
19:35 1017 30.03 846 24.98 12 53.6 37 -2.2 28
19:40 1017 30.03 846 24.98 11.9 53.3 36 -2.6 27.4
19:45 1017 30.03 846 24.98 12 53.6 36 -2.7 27.2
19:50 1017 30.03 846 24.98 12 53.7 37 -2.3 27.9
19:55 1017 30.03 846 24.98 11.9 53.4 37 -2.3 27.9
20:00 1017 30.03 846 24.98 11.8 53.2 36 -2.6 27.4
20:05 1017 30.03 846 24.98 11.9 53.3 37 -2.5 27.6
20:10 1017 30.03 846 24.98 11.7 53 38 -2.3 27.9
20:15 1016 30 846 24.98 11.5 52.6 38 -2.3 27.9
20:20 1016 30 846 24.98 11.5 52.6 38 -2.3 27.9
20:25 1017 30.03 846 24.98 11.5 52.6 39 -2 28.3
20:30 1017 30.03 846 24.98 11.3 52.4 40 -1.9 28.6
20:35 1017 30.03 846 24.98 11.4 52.5 40 -1.8 28.7
20:40 1017 30.03 846 24.98 11.4 52.5 40 -1.6 29
20:45 1017 30.03 846 24.98 11.4 52.5 41 -1.4 29.5
20:50 1017 30.03 846 24.98 11.3 52.3 41 -1.3 29.6
20:55 1017 30.03 846 24.98 11.2 52.2 42 -1.2 29.9
21:00 1017 30.03 846 24.98 11.1 51.9 43 -1.1 30
21:05 1017 30.03 846 24.98 11.1 51.9 42 -1.4 29.4
21:10 1017 30.03 846 24.98 11.1 52 42 -1.3 29.7
21:15 1017 30.03 846 24.98 10.9 51.7 42 -1.3 29.7
21:20 1017 30.03 846 24.98 10.9 51.7 42 -1.3 29.6
21:25 1017 30.03 846 24.98 10.9 51.6 42 -1.6 29.1
21:30 1017 30.03 846 24.98 10.9 51.7 41 -1.8 28.7
21:35 1017 30.03 846 24.98 11 51.8 41 -1.8 28.7
21:40 1017 30.03 846 24.98 10.9 51.6 41 -1.8 28.8
21:45 1017 30.03 846 24.98 10.7 51.3 41 -2 28.4
21:50 1017 30.03 847 25.01 10.7 51.3 40 -2.4 27.7
21:55 1017 30.03 847 25.01 10.9 51.6 39 -2.5 27.6
22:00 1017 30.03 847 25.01 10.8 51.5 39 -2.5 27.6
22:05 1017 30.03 847 25.01 10.7 51.2 39 -2.5 27.5
22:10 1017 30.03 847 25.01 10.6 51 39 -2.7 27.1
22:15 1018 30.06 847 25.01 10.5 50.9 38 -3.1 26.4
22:20 1018 30.06 847 25.01 10.6 51.1 38 -3.2 26.2
22:25 1018 30.06 847 25.01 10.4 50.7 40 -2.7 27.1
22:30 1018 30.06 847 25.01 9.9 49.9 41 -2.6 27.3
22:35 1018 30.06 847 25.01 9.5 49 43 -2.5 27.5
22:40 1018 30.06 847 25.01 9.3 48.7 43 -2.5 27.5
22:45 1018 30.06 847 25.01 9.2 48.5 43 -2.6 27.3
22:50 1018 30.06 847 25.01 9.4 48.9 43 -2.5 27.4
22:55 1018 30.06 847 25.01 9.6 49.3 42 -2.5 27.4
23:00 1018 30.06 847 25.01 9.7 49.4 43 -2.2 28
23:05 1018 30.06 847 25.01 9.6 49.2 44 -2.2 28.1
23:10 1018 30.06 847 25.01 9.5 49.2 44 -2.2 28
23:15 1018 30.06 847 25.01 9.7 49.4 42 -2.6 27.3
23:20 1018 30.06 847 25.01 10 49.9 41 -2.6 27.3
23:25 1018 30.06 847 25.01 10 50 41 -2.4 27.6
23:30 1018 30.06 847 25.01 9.9 49.8 41 -2.6 27.4
23:35 1018 30.06 847 25.01 9.8 49.7 41 -2.7 27.1
23:40 1018 30.06 847 25.01 9.7 49.5 42 -2.6 27.3
23:45 1018 30.06 847 25.01 9.6 49.3 42 -2.7 27.1
23:50 1018 30.06 847 25.01 9.5 49.1 41 -3 26.7
23:55 1018 30.06 847 25.01 9.6 49.3 40 -3.2 26.3
24:00 1018 30.06 847 25.01 9.7 49.5 40 -3.2 26.2